createdAt,value
2018-05-04T00:00:18.171Z,9.40
2018-05-04T00:02:47.274Z,9.40
2018-05-04T00:05:15.999Z,9.30
2018-05-04T00:07:44.459Z,9.30
2018-05-04T00:10:12.788Z,9.30
2018-05-04T00:12:41.109Z,9.30
2018-05-04T00:15:10.370Z,9.20
2018-05-04T00:17:38.815Z,9.20
2018-05-04T00:20:07.166Z,9.20
2018-05-04T00:22:35.737Z,9.20
2018-05-04T00:25:04.128Z,9.10
2018-05-04T00:27:32.526Z,9.10
2018-05-04T00:30:01.159Z,9.00
2018-05-04T00:32:29.538Z,9.00
2018-05-04T00:34:57.865Z,9.00
2018-05-04T00:37:26.296Z,8.90
2018-05-04T00:39:54.718Z,8.90
2018-05-04T00:42:23.067Z,8.90
2018-05-04T00:44:52.163Z,8.80
2018-05-04T00:47:20.529Z,8.80
2018-05-04T00:49:48.858Z,8.80
2018-05-04T00:52:17.214Z,8.80
2018-05-04T00:54:46.646Z,8.70
2018-05-04T00:57:15.308Z,8.70
2018-05-04T00:59:43.810Z,8.60
2018-05-04T01:02:12.220Z,8.60
2018-05-04T01:04:40.660Z,8.60
2018-05-04T01:07:09.059Z,8.50
2018-05-04T01:09:37.397Z,8.50
2018-05-04T01:12:06.523Z,8.40
2018-05-04T01:14:35.135Z,8.40
2018-05-04T01:17:03.503Z,8.40
2018-05-04T01:19:31.834Z,8.40
2018-05-04T01:22:00.957Z,8.40
2018-05-04T01:24:29.306Z,8.30
2018-05-04T01:26:58.439Z,8.10
2018-05-04T01:29:27.403Z,8.10
2018-05-04T01:31:55.955Z,8.10
2018-05-04T01:34:24.311Z,8.10
2018-05-04T01:36:52.680Z,8.00
2018-05-04T01:39:21.891Z,7.90
2018-05-04T01:41:50.242Z,7.90
2018-05-04T01:44:18.594Z,7.90
2018-05-04T01:46:47.845Z,7.90
2018-05-04T01:49:16.182Z,7.90
2018-05-04T01:51:44.530Z,7.90
2018-05-04T01:54:12.856Z,7.90
2018-05-04T01:56:41.198Z,7.80
2018-05-04T01:59:09.815Z,7.80
2018-05-04T02:01:38.133Z,7.80
2018-05-04T02:04:06.460Z,7.70
2018-05-04T02:06:34.805Z,7.70
2018-05-04T02:09:03.156Z,7.70
2018-05-04T02:14:06.260Z,7.40
2018-05-04T02:16:34.656Z,7.30
2018-05-04T02:19:03.192Z,7.30
2018-05-04T02:21:31.557Z,7.30
2018-05-04T02:24:00.659Z,7.30
2018-05-04T02:26:29.100Z,7.30
2018-05-04T02:28:57.442Z,7.40
2018-05-04T02:31:25.909Z,7.40
2018-05-04T02:33:55.122Z,7.40
2018-05-04T02:36:23.463Z,7.40
2018-05-04T02:38:52.704Z,7.30
2018-05-04T02:41:21.111Z,7.20
2018-05-04T02:43:49.464Z,7.20
2018-05-04T02:46:17.808Z,7.20
2018-05-04T02:48:46.145Z,7.10
2018-05-04T02:51:14.480Z,7.00
2018-05-04T02:53:42.875Z,7.00
2018-05-04T02:56:11.260Z,7.10
2018-05-04T02:58:39.622Z,7.00
2018-05-04T03:01:07.995Z,7.00
2018-05-04T03:03:37.085Z,7.00
2018-05-04T03:06:05.488Z,7.00
2018-05-04T03:08:33.821Z,7.00
2018-05-04T03:11:02.150Z,7.00
2018-05-04T03:13:30.468Z,6.90
2018-05-04T03:15:58.898Z,6.90
2018-05-04T03:18:27.224Z,6.90
2018-05-04T03:20:55.562Z,7.00
2018-05-04T03:23:24.012Z,7.00
2018-05-04T03:25:52.419Z,7.00
2018-05-04T03:28:20.870Z,7.00
2018-05-04T03:30:49.988Z,7.00
2018-05-04T03:33:19.078Z,6.90
2018-05-04T03:35:47.419Z,6.90
2018-05-04T03:38:15.767Z,7.00
2018-05-04T03:40:44.143Z,6.90
2018-05-04T03:43:13.188Z,6.90
2018-05-04T03:45:41.532Z,6.80
2018-05-04T03:48:09.856Z,6.80
2018-05-04T03:50:38.968Z,6.80
2018-05-04T03:53:07.296Z,6.80
2018-05-04T03:55:35.740Z,6.80
2018-05-04T03:58:15.887Z,6.80
2018-05-04T04:00:56.022Z,6.80
2018-05-04T04:06:25.939Z,6.80
2018-05-04T04:08:54.316Z,6.80
2018-05-04T04:11:23.404Z,6.80
2018-05-04T04:13:51.885Z,6.80
2018-05-04T04:16:20.475Z,6.80
2018-05-04T04:18:48.907Z,6.80
2018-05-04T04:21:17.396Z,6.80
2018-05-04T04:23:45.807Z,6.90
2018-05-04T04:26:14.224Z,6.90
2018-05-04T04:28:43.496Z,6.90
2018-05-04T04:31:11.840Z,6.90
2018-05-04T04:33:40.194Z,6.80
2018-05-04T04:36:08.713Z,6.80
2018-05-04T04:38:37.035Z,6.80
2018-05-04T04:41:05.446Z,6.80
2018-05-04T04:43:33.803Z,6.90
2018-05-04T04:46:03.509Z,7.10
2018-05-04T04:48:32.603Z,7.10
2018-05-04T04:51:01.824Z,7.20
2018-05-04T04:53:30.941Z,7.30
2018-05-04T04:55:59.345Z,7.30
2018-05-04T04:58:27.678Z,7.40
2018-05-04T05:00:56.020Z,7.50
2018-05-04T05:03:24.366Z,7.50
2018-05-04T05:05:52.706Z,7.60
2018-05-04T05:08:21.122Z,7.70
2018-05-04T05:10:49.447Z,7.80
2018-05-04T05:13:18.563Z,8.00
2018-05-04T05:15:46.882Z,7.90
2018-05-04T05:18:15.392Z,8.10
2018-05-04T05:20:43.801Z,8.10
2018-05-04T05:23:12.157Z,8.20
2018-05-04T05:25:40.600Z,8.30
2018-05-04T05:28:08.944Z,8.30
2018-05-04T05:30:37.344Z,8.40
2018-05-04T05:33:05.697Z,8.50
2018-05-04T05:35:34.183Z,8.60
2018-05-04T05:38:02.476Z,8.70
2018-05-04T05:40:30.823Z,8.80
2018-05-04T05:42:59.150Z,8.90
2018-05-04T05:45:27.503Z,9.00
2018-05-04T05:47:55.962Z,9.10
2018-05-04T05:50:25.768Z,9.40
2018-05-04T05:52:54.107Z,9.30
2018-05-04T05:55:22.446Z,9.50
2018-05-04T05:57:50.776Z,9.70
2018-05-04T06:00:19.113Z,9.80
2018-05-04T06:02:47.491Z,10.00
2018-05-04T06:05:15.827Z,10.10
2018-05-04T06:07:44.311Z,10.10
2018-05-04T06:10:12.736Z,10.20
2018-05-04T06:12:41.076Z,10.30
2018-05-04T06:15:10.251Z,10.40
2018-05-04T06:17:38.550Z,10.40
2018-05-04T06:20:06.914Z,10.50
2018-05-04T06:22:35.283Z,10.50
2018-05-04T06:25:04.304Z,10.60
2018-05-04T06:27:32.597Z,10.70
2018-05-04T06:30:02.317Z,11.10
2018-05-04T06:32:30.670Z,11.10
2018-05-04T06:34:59.791Z,11.30
2018-05-04T06:37:28.130Z,11.30
2018-05-04T06:39:56.485Z,11.50
2018-05-04T06:42:24.826Z,11.70
2018-05-04T06:44:53.246Z,11.80
2018-05-04T06:47:21.566Z,11.90
2018-05-04T06:49:49.903Z,12.00
2018-05-04T06:52:18.359Z,12.10
2018-05-04T06:54:46.827Z,12.20
2018-05-04T06:57:15.176Z,12.30
2018-05-04T06:59:43.526Z,12.50
2018-05-04T07:02:11.985Z,12.60
2018-05-04T07:04:40.330Z,12.70
2018-05-04T07:07:09.447Z,12.90
2018-05-04T07:09:37.829Z,12.90
2018-05-04T07:12:06.197Z,13.00
2018-05-04T07:14:34.545Z,13.00
2018-05-04T07:17:02.923Z,13.10
2018-05-04T07:19:31.260Z,13.10
2018-05-04T07:21:59.671Z,13.10
2018-05-04T07:24:27.953Z,13.20
2018-05-04T07:26:56.298Z,13.30
2018-05-04T07:29:24.646Z,13.40
2018-05-04T07:31:52.998Z,13.40
2018-05-04T07:34:22.114Z,13.60
2018-05-04T07:36:51.210Z,13.70
2018-05-04T07:39:19.578Z,13.70
2018-05-04T07:41:49.064Z,13.90
2018-05-04T07:44:17.520Z,13.90
2018-05-04T07:46:45.852Z,14.00
2018-05-04T07:49:15.164Z,14.20
2018-05-04T07:51:43.546Z,14.20
2018-05-04T07:54:11.887Z,14.30
2018-05-04T07:56:40.236Z,14.40
2018-05-04T07:59:08.596Z,14.50
2018-05-04T08:01:36.944Z,14.70
2018-05-04T08:04:05.523Z,14.90
2018-05-04T08:06:34.558Z,15.10
2018-05-04T08:09:02.934Z,15.10
2018-05-04T08:11:31.365Z,15.10
2018-05-04T08:13:59.718Z,15.20
2018-05-04T08:16:28.166Z,15.20
2018-05-04T08:18:56.500Z,15.30
2018-05-04T08:21:24.834Z,15.40
2018-05-04T08:23:53.171Z,15.40
2018-05-04T08:26:22.267Z,15.70
2018-05-04T08:28:51.396Z,15.80
2018-05-04T08:31:19.775Z,15.80
2018-05-04T08:33:48.168Z,15.80
2018-05-04T08:36:16.962Z,16.00
2018-05-04T08:38:45.285Z,16.20
2018-05-04T08:41:14.411Z,16.40
2018-05-04T08:43:42.801Z,16.40
2018-05-04T08:46:11.168Z,16.50
2018-05-04T08:48:39.507Z,16.50
2018-05-04T08:51:07.930Z,16.50
2018-05-04T08:53:36.243Z,16.60
2018-05-04T08:56:04.583Z,16.60
2018-05-04T08:58:32.930Z,16.70
2018-05-04T09:01:01.311Z,16.80
2018-05-04T09:03:29.641Z,17.00
2018-05-04T09:05:57.992Z,17.10
2018-05-04T09:08:26.341Z,17.30
2018-05-04T09:10:54.686Z,17.40
2018-05-04T09:13:23.047Z,17.50
2018-05-04T09:15:51.474Z,17.50
2018-05-04T09:18:19.808Z,17.70
2018-05-04T09:20:48.182Z,17.90
2018-05-04T09:23:16.527Z,18.10
2018-05-04T09:25:44.862Z,18.30
2018-05-04T09:28:13.231Z,18.50
2018-05-04T09:30:42.122Z,18.60
2018-05-04T09:33:11.202Z,19.00
2018-05-04T09:35:40.519Z,19.20
2018-05-04T09:38:08.852Z,19.20
2018-05-04T09:40:38.044Z,19.80
2018-05-04T09:43:06.387Z,19.80
2018-05-04T09:45:34.741Z,20.00
2018-05-04T09:48:03.143Z,20.00
2018-05-04T09:50:31.467Z,20.30
2018-05-04T09:53:00.597Z,20.60
2018-05-04T09:55:28.962Z,20.50
2018-05-04T09:57:57.355Z,20.60
2018-05-04T10:00:27.022Z,20.70
2018-05-04T10:02:55.972Z,20.60
2018-05-04T10:05:24.334Z,21.10
2018-05-04T10:07:52.677Z,21.50
2018-05-04T10:10:21.116Z,21.60
2018-05-04T10:12:49.558Z,21.90
2018-05-04T10:15:17.956Z,22.30
2018-05-04T10:17:46.342Z,22.60
2018-05-04T10:20:14.715Z,22.70
2018-05-04T10:22:43.105Z,22.80
2018-05-04T10:25:11.484Z,22.90
2018-05-04T10:27:39.951Z,23.20
2018-05-04T10:30:08.397Z,23.00
2018-05-04T10:32:36.828Z,23.00
2018-05-04T10:35:05.196Z,23.00
2018-05-04T10:37:33.589Z,23.20
2018-05-04T10:40:02.351Z,23.10
2018-05-04T10:42:31.466Z,21.70
2018-05-04T10:44:59.878Z,21.70
2018-05-04T10:47:28.227Z,21.60
2018-05-04T10:49:56.576Z,21.70
2018-05-04T10:52:24.979Z,22.00
2018-05-04T10:54:53.327Z,22.10
2018-05-04T10:57:22.443Z,22.50
2018-05-04T10:59:50.791Z,22.50
2018-05-04T11:02:20.000Z,22.80
2018-05-04T11:04:49.113Z,23.20
2018-05-04T11:07:17.495Z,23.20
2018-05-04T11:09:45.835Z,23.50
2018-05-04T11:12:14.266Z,24.00
2018-05-04T11:14:42.761Z,24.30
2018-05-04T11:17:11.242Z,24.70
2018-05-04T11:19:39.599Z,24.90
2018-05-04T11:22:07.951Z,25.10
2018-05-04T11:24:36.380Z,25.30
2018-05-04T11:27:04.721Z,25.40
2018-05-04T11:29:33.813Z,25.80
2018-05-04T11:32:02.925Z,26.00
2018-05-04T11:34:31.343Z,26.00
2018-05-04T11:36:59.811Z,26.10
2018-05-04T11:39:28.135Z,25.80
2018-05-04T11:41:57.356Z,26.20
2018-05-04T11:44:25.821Z,26.20
2018-05-04T11:46:54.242Z,26.40
2018-05-04T11:49:22.606Z,26.50
2018-05-04T11:51:50.965Z,26.60
2018-05-04T11:54:20.076Z,26.40
2018-05-04T11:56:49.290Z,26.20
2018-05-04T11:59:17.630Z,26.20
2018-05-04T12:01:46.893Z,26.50
2018-05-04T12:04:15.224Z,26.40
2018-05-04T12:06:43.574Z,26.70
2018-05-04T12:09:11.920Z,26.90
2018-05-04T12:11:40.314Z,27.20
2018-05-04T12:14:08.781Z,27.40
2018-05-04T12:16:37.155Z,27.60
2018-05-04T12:19:06.221Z,27.80
2018-05-04T12:21:34.644Z,27.70
2018-05-04T12:24:03.009Z,27.70
2018-05-04T12:26:31.440Z,27.40
2018-05-04T12:29:00.555Z,27.80
2018-05-04T12:31:28.932Z,27.70
2018-05-04T12:33:57.295Z,27.90
2018-05-04T12:36:26.398Z,28.20
2018-05-04T12:38:55.616Z,28.50
2018-05-04T12:41:23.962Z,28.40
2018-05-04T12:43:52.299Z,28.70
2018-05-04T12:46:20.670Z,28.60
2018-05-04T12:48:49.264Z,28.60
2018-05-04T12:51:18.331Z,28.70
2018-05-04T12:53:46.927Z,28.70
2018-05-04T12:56:15.202Z,28.70
2018-05-04T12:58:43.601Z,28.90
2018-05-04T13:01:11.980Z,28.90
2018-05-04T13:03:40.676Z,28.80
2018-05-04T13:06:09.047Z,28.70
2018-05-04T13:08:37.381Z,29.10
2018-05-04T13:11:06.518Z,29.20
2018-05-04T13:13:34.955Z,29.10
2018-05-04T13:16:04.085Z,29.10
2018-05-04T13:18:32.488Z,29.00
2018-05-04T13:21:00.863Z,29.10
2018-05-04T13:23:29.235Z,29.00
2018-05-04T13:25:57.636Z,28.80
2018-05-04T13:28:25.997Z,29.00
2018-05-04T13:30:54.358Z,29.30
2018-05-04T13:33:22.768Z,28.80
2018-05-04T13:35:51.133Z,28.60
2018-05-04T13:38:19.520Z,28.70
2018-05-04T13:40:47.893Z,28.60
2018-05-04T13:43:16.336Z,28.90
2018-05-04T13:45:44.683Z,29.00
2018-05-04T13:48:13.187Z,29.00
2018-05-04T13:50:41.861Z,29.30
2018-05-04T13:53:10.198Z,29.50
2018-05-04T13:55:38.568Z,29.60
2018-05-04T13:58:06.954Z,29.40
2018-05-04T14:00:35.306Z,29.40
2018-05-04T14:03:03.679Z,29.50
2018-05-04T14:05:32.023Z,29.60
2018-05-04T14:08:00.475Z,29.70
2018-05-04T14:10:28.839Z,29.50
2018-05-04T14:12:57.221Z,29.30
2018-05-04T14:15:25.612Z,29.20
2018-05-04T14:17:54.040Z,29.10
2018-05-04T14:20:22.473Z,29.20
2018-05-04T14:22:50.964Z,29.20
2018-05-04T14:25:19.324Z,29.30
2018-05-04T14:27:47.736Z,29.30
2018-05-04T14:30:16.113Z,29.30
2018-05-04T14:32:44.447Z,29.40
2018-05-04T14:35:12.811Z,29.40
2018-05-04T14:37:41.917Z,29.20
2018-05-04T14:40:10.277Z,29.20
2018-05-04T14:42:39.411Z,29.20
2018-05-04T14:45:07.910Z,29.20
2018-05-04T14:47:36.265Z,29.10
2018-05-04T14:50:04.620Z,29.10
2018-05-04T14:52:33.746Z,29.10
2018-05-04T14:55:02.143Z,29.10
2018-05-04T14:57:31.476Z,28.90
2018-05-04T14:59:59.910Z,29.10
2018-05-04T15:02:28.321Z,29.10
2018-05-04T15:04:56.638Z,29.10
2018-05-04T15:07:25.132Z,29.10
2018-05-04T15:09:53.755Z,29.00
2018-05-04T15:12:22.103Z,28.80
2018-05-04T15:14:50.499Z,28.80
2018-05-04T15:17:18.858Z,28.70
2018-05-04T15:19:47.198Z,28.60
2018-05-04T15:22:15.922Z,28.10
2018-05-04T15:24:45.044Z,28.30
2018-05-04T15:27:13.520Z,28.30
2018-05-04T15:29:41.887Z,28.30
2018-05-04T15:32:10.232Z,27.80
2018-05-04T15:34:38.651Z,28.00
2018-05-04T15:37:07.030Z,28.20
2018-05-04T15:39:35.382Z,28.30
2018-05-04T15:42:04.493Z,28.40
2018-05-04T15:44:32.834Z,28.40
2018-05-04T15:47:01.211Z,28.50
2018-05-04T15:49:29.823Z,28.90
2018-05-04T15:52:06.755Z,29.10
2018-05-04T15:54:35.398Z,29.10
2018-05-04T15:57:03.695Z,29.00
2018-05-04T15:59:32.088Z,29.00
2018-05-04T16:02:00.429Z,28.70
2018-05-04T16:04:29.464Z,28.50
2018-05-04T16:06:57.838Z,28.50
2018-05-04T16:09:26.183Z,28.70
2018-05-04T16:11:54.707Z,29.00
2018-05-04T16:14:23.064Z,29.50
2018-05-04T16:16:51.436Z,29.90
2018-05-04T16:19:19.795Z,30.40
2018-05-04T16:21:48.272Z,30.00
2018-05-04T16:24:17.412Z,30.60
2018-05-04T16:26:45.836Z,30.60
2018-05-04T16:29:14.257Z,31.10
2018-05-04T16:31:42.673Z,31.70
2018-05-04T16:34:11.019Z,31.30
2018-05-04T16:36:39.362Z,31.50
2018-05-04T16:39:07.884Z,32.20
2018-05-04T16:41:36.317Z,32.60
2018-05-04T16:44:04.636Z,32.40
2018-05-04T16:46:38.634Z,32.20
2018-05-04T16:49:13.580Z,32.20
2018-05-04T16:51:41.977Z,32.20
2018-05-04T16:54:10.470Z,32.10
2018-05-04T16:56:38.827Z,31.90
2018-05-04T16:59:07.387Z,32.00
2018-05-04T17:01:36.487Z,31.50
2018-05-04T17:04:04.820Z,31.60
2018-05-04T17:06:33.309Z,31.30
2018-05-04T17:09:01.775Z,31.10
2018-05-04T17:11:30.109Z,30.60
2018-05-04T17:13:58.501Z,30.10
2018-05-04T17:16:27.734Z,29.40
2018-05-04T17:18:56.427Z,28.50
2018-05-04T17:21:25.095Z,27.60
2018-05-04T17:23:53.435Z,26.70
2018-05-04T17:26:21.839Z,25.60
2018-05-04T17:28:50.290Z,24.70
2018-05-04T17:31:18.852Z,24.00
2018-05-04T17:33:47.241Z,23.40
2018-05-04T17:36:15.750Z,22.80
2018-05-04T17:38:44.141Z,22.00
2018-05-04T17:41:12.491Z,21.80
2018-05-04T17:43:42.282Z,21.10
2018-05-04T17:46:10.616Z,21.00
2018-05-04T17:48:38.988Z,20.90
2018-05-04T17:51:08.465Z,20.70
2018-05-04T17:53:37.050Z,20.60
2018-05-04T17:56:05.411Z,20.50
2018-05-04T17:58:33.768Z,20.40
2018-05-04T18:01:02.106Z,20.20
2018-05-04T18:03:30.464Z,20.20
2018-05-04T18:05:59.602Z,20.50
2018-05-04T18:08:27.959Z,20.50
2018-05-04T18:10:56.404Z,20.30
2018-05-04T18:13:24.892Z,20.10
2018-05-04T18:15:54.033Z,19.70
2018-05-04T18:18:22.529Z,19.70
2018-05-04T18:20:50.909Z,19.50
2018-05-04T18:23:19.270Z,19.20
2018-05-04T18:25:47.618Z,19.00
2018-05-04T18:28:16.080Z,18.80
2018-05-04T18:30:44.528Z,18.60
2018-05-04T18:33:12.865Z,18.40
2018-05-04T18:35:41.418Z,18.30
2018-05-04T18:38:09.762Z,18.10
2018-05-04T18:40:38.127Z,17.90
2018-05-04T18:43:06.491Z,17.80
2018-05-04T18:45:36.215Z,17.50
2018-05-04T18:48:04.612Z,17.50
2018-05-04T18:50:32.974Z,17.40
2018-05-04T18:53:01.327Z,17.20
2018-05-04T18:55:30.472Z,16.90
2018-05-04T18:57:58.878Z,16.90
2018-05-04T19:00:27.262Z,16.80
2018-05-04T19:03:01.509Z,16.60
2018-05-04T19:05:30.676Z,16.40
2018-05-04T19:07:59.064Z,16.40
2018-05-04T19:10:27.391Z,16.30
2018-05-04T19:12:55.738Z,16.10
2018-05-04T19:15:24.865Z,15.90
2018-05-04T19:17:53.216Z,15.90
2018-05-04T19:20:22.445Z,15.70
2018-05-04T19:22:50.807Z,15.70
2018-05-04T19:25:19.163Z,15.60
2018-05-04T19:27:47.511Z,15.50
2018-05-04T19:30:15.858Z,15.40
2018-05-04T19:32:44.243Z,15.30
2018-05-04T19:35:12.604Z,15.30
2018-05-04T19:37:41.721Z,15.10
2018-05-04T19:40:10.634Z,15.10
2018-05-04T19:42:39.025Z,15.10
2018-05-04T19:45:07.447Z,15.00
2018-05-04T19:47:35.969Z,14.90
2018-05-04T19:50:04.527Z,14.90
2018-05-04T19:52:32.958Z,14.90
2018-05-04T19:55:01.325Z,14.80
2018-05-04T19:57:29.706Z,14.80
2018-05-04T19:59:58.086Z,14.70
2018-05-04T20:02:26.443Z,14.70
2018-05-04T20:04:54.925Z,14.60
2018-05-04T20:07:23.283Z,14.60
2018-05-04T20:09:52.396Z,14.50
2018-05-04T20:12:20.754Z,14.40
2018-05-04T20:14:49.273Z,14.40
2018-05-04T20:17:17.610Z,14.30
2018-05-04T20:19:46.104Z,14.30
2018-05-04T20:22:14.463Z,14.30
2018-05-04T20:24:42.977Z,14.20
2018-05-04T20:27:11.380Z,14.20
2018-05-04T20:29:39.732Z,14.10
2018-05-04T20:32:08.115Z,14.10
2018-05-04T20:34:36.482Z,14.10
2018-05-04T20:37:05.056Z,14.00
2018-05-04T20:39:34.135Z,13.90
2018-05-04T20:42:02.506Z,13.90
2018-05-04T20:44:30.827Z,13.90
2018-05-04T20:46:59.179Z,13.80
2018-05-04T20:49:28.346Z,13.70
2018-05-04T20:51:56.871Z,13.70
2018-05-04T20:54:26.099Z,13.60
2018-05-04T20:56:55.376Z,13.50
2018-05-04T20:59:23.781Z,13.50
2018-05-04T21:01:52.145Z,13.50
2018-05-04T21:04:20.495Z,13.50
2018-05-04T21:06:50.642Z,13.30
2018-05-04T21:09:19.009Z,13.30
2018-05-04T21:11:47.354Z,13.20
2018-05-04T21:14:15.738Z,13.20
2018-05-04T21:16:44.141Z,13.10
2018-05-04T21:19:13.259Z,13.00
2018-05-04T21:21:42.464Z,13.00
2018-05-04T21:24:10.824Z,13.00
2018-05-04T21:26:39.291Z,13.00
2018-05-04T21:29:08.628Z,12.80
2018-05-04T21:31:36.942Z,12.80
2018-05-04T21:34:05.302Z,12.80
2018-05-04T21:36:33.676Z,12.70
2018-05-04T21:39:02.026Z,12.60
2018-05-04T21:41:30.466Z,12.60
2018-05-04T21:43:59.001Z,12.60
2018-05-04T21:46:27.455Z,12.50
2018-05-04T21:48:56.548Z,12.50
2018-05-04T21:51:25.107Z,12.50
2018-05-04T21:56:28.299Z,12.50
2018-05-04T21:58:56.664Z,12.40
2018-05-04T22:01:25.025Z,12.40
2018-05-04T22:03:54.010Z,12.40
2018-05-04T22:06:22.389Z,12.40
2018-05-04T22:08:50.807Z,12.30
2018-05-04T22:11:19.516Z,12.30
2018-05-04T22:13:47.968Z,12.20
2018-05-04T22:16:16.318Z,12.20
2018-05-04T22:18:45.945Z,12.10
2018-05-04T22:21:14.512Z,12.10
2018-05-04T22:23:42.845Z,12.10
2018-05-04T22:26:11.211Z,12.10
2018-05-04T22:28:39.551Z,12.00
2018-05-04T22:31:07.891Z,12.00
2018-05-04T22:33:36.481Z,11.90
2018-05-04T22:36:05.829Z,11.90
2018-05-04T22:38:34.378Z,11.90
2018-05-04T22:41:02.997Z,11.80
2018-05-04T22:43:31.915Z,11.80
2018-05-04T22:46:00.247Z,11.80
2018-05-04T22:48:28.656Z,11.70
2018-05-04T22:50:57.016Z,11.70
2018-05-04T22:53:25.635Z,11.70
2018-05-04T22:55:53.974Z,11.70
2018-05-04T22:58:22.375Z,11.60
2018-05-04T23:00:50.735Z,11.60
2018-05-04T23:03:19.171Z,11.60
2018-05-04T23:05:47.591Z,11.50
2018-05-04T23:08:15.972Z,11.50
2018-05-04T23:10:44.342Z,11.40
2018-05-04T23:13:12.894Z,11.40
2018-05-04T23:15:41.272Z,11.40
2018-05-04T23:18:09.816Z,11.40
2018-05-04T23:20:38.196Z,11.30
2018-05-04T23:23:06.807Z,11.30
2018-05-04T23:25:35.207Z,11.30
2018-05-04T23:28:03.593Z,11.30
2018-05-04T23:30:33.234Z,11.20
2018-05-04T23:33:01.835Z,11.10
2018-05-04T23:35:30.250Z,11.10
2018-05-04T23:37:58.895Z,11.10
2018-05-04T23:40:27.209Z,11.10
2018-05-04T23:42:55.670Z,11.10
2018-05-04T23:45:24.018Z,11.00
2018-05-04T23:47:52.414Z,11.00
2018-05-04T23:50:20.750Z,11.00
2018-05-04T23:52:49.890Z,10.90
2018-05-04T23:55:18.294Z,10.90
2018-05-04T23:57:46.644Z,10.90
